Time;durP1;ratioP1;P1;durP2;ratioP2;P2;SDS_P1;SDS_P2;PMS_P1;PMS_P2;Temp;Humidity;BMP_temperature;BMP_pressure;BME280_temperature;BME280_humidity;BME280_pressure;Samples;Min_cycle;Max_cycle;Signal;HPM_P1;HPM_P2
2021/12/15 00:01:10;;;;;;;;;;;7.60;96.90;;;;;;5096413;28;19915;-70
2021/12/15 00:03:36;;;;;;;;;;;7.60;96.90;;;;;;5091793;28;19916;-70
2021/12/15 00:06:03;;;;;;;;;;;7.60;96.90;;;;;;5094277;28;20223;-70
2021/12/15 00:08:28;;;;;;;;;;;7.60;96.90;;;;;;5088724;28;19911;-70
2021/12/15 00:10:54;;;;;;;;;;;7.60;96.90;;;;;;5089044;28;20389;-70
2021/12/15 00:13:21;;;;;;;;;;;7.60;96.90;;;;;;5092051;28;19958;-70
2021/12/15 00:15:47;;;;;;;;;;;7.60;96.90;;;;;;5088415;28;20345;-70
2021/12/15 00:18:14;;;;;;;;;;;7.60;96.90;;;;;;5089572;28;19912;-70
2021/12/15 00:20:40;;;;;;;;;;;7.60;96.90;;;;;;5091374;28;19916;-70
2021/12/15 00:23:06;;;;;;;;;;;7.60;96.90;;;;;;5087036;28;19919;-70
2021/12/15 00:25:34;;;;;;;;;;;7.60;96.90;;;;;;5091650;28;19915;-70
2021/12/15 00:28:00;;;;;;;;;;;7.60;96.90;;;;;;5083278;28;19916;-70
2021/12/15 00:30:26;;;;;;;;;;;7.60;96.90;;;;;;5090646;28;19920;-70
2021/12/15 00:32:52;;;;;;;;;;;7.60;96.90;;;;;;5092140;28;20394;-70
2021/12/15 00:35:18;;;;;;;;;;;7.60;96.90;;;;;;5091904;28;20388;-70
2021/12/15 00:37:43;;;;;;;;;;;7.60;96.90;;;;;;5091139;28;20353;-70
2021/12/15 00:40:10;;;;;;;;;;;7.60;96.90;;;;;;5092678;28;19994;-70
2021/12/15 00:42:36;;;;;;;;;;;7.60;96.90;;;;;;5088032;28;19915;-70
2021/12/15 00:45:04;;;;;;;;;;;7.60;96.90;;;;;;5089206;28;19966;-71
2021/12/15 00:47:29;;;;;;;;;;;7.60;96.90;;;;;;5090556;28;19916;-70
2021/12/15 00:49:55;;;;;;;;;;;7.60;96.90;;;;;;5090695;28;19912;-70
2021/12/15 00:52:20;;;;;;;;;;;7.60;96.90;;;;;;5096104;28;19925;-70
2021/12/15 00:54:46;;;;;;;;;;;7.60;96.90;;;;;;5087573;28;20373;-70
2021/12/15 00:57:11;;;;;;;;;;;7.60;96.90;;;;;;5083657;28;19920;-70
2021/12/15 00:59:37;;;;;;;;;;;7.60;96.90;;;;;;5087910;28;19922;-70
2021/12/15 01:02:02;;;;;;;;;;;7.60;96.90;;;;;;5081372;28;19913;-70
2021/12/15 01:04:31;;;;;;;;;;;7.60;96.90;;;;;;5090134;28;19920;-70
2021/12/15 01:06:58;;;;;;;;;;;7.60;96.90;;;;;;5097444;28;19918;-70
2021/12/15 01:09:26;;;;;;;;;;;7.60;96.90;;;;;;5093452;28;20023;-70
2021/12/15 01:20:14;;;;;;;;;;;7.60;96.90;;;;;;5091945;28;19964;-69
2021/12/15 01:22:43;;;;;;;;;;;7.60;96.90;;;;;;5087966;28;19908;-70
2021/12/15 01:25:11;;;;;;;;;;;7.60;96.90;;;;;;5099200;28;19918;-70
2021/12/15 01:27:37;;;;;;;;;;;7.60;96.90;;;;;;5089877;28;20180;-70
2021/12/15 01:30:04;;;;;;;;;;;7.60;96.90;;;;;;5097167;28;19911;-70
2021/12/15 01:32:29;;;;;;;;;;;7.60;96.90;;;;;;5094280;28;19916;-70
2021/12/15 01:34:55;;;;;;;;;;;7.60;96.90;;;;;;5090940;28;20041;-70
2021/12/15 01:37:20;;;;;;;;;;;7.60;96.90;;;;;;5084040;28;20353;-70
2021/12/15 01:39:46;;;;;;;;;;;7.60;96.90;;;;;;5095270;28;19908;-70
2021/12/15 01:42:12;;;;;;;;;;;7.60;96.90;;;;;;5099387;28;19912;-70
2021/12/15 01:47:22;;;;;;;;;;;7.60;96.90;;;;;;5086647;28;19923;-70
2021/12/15 01:49:49;;;;;;;;;;;7.60;96.90;;;;;;5089739;28;19908;-70
2021/12/15 01:52:15;;;;;;;;;;;7.60;96.90;;;;;;5090826;28;19911;-70
2021/12/15 01:54:42;;;;;;;;;;;7.60;96.90;;;;;;5091342;28;19911;-70
2021/12/15 01:57:09;;;;;;;;;;;7.60;96.90;;;;;;5091012;28;20002;-70
2021/12/15 01:59:34;;;;;;;;;;;7.60;96.90;;;;;;5091305;28;19918;-70
2021/12/15 02:02:00;;;;;;;;;;;7.60;96.90;;;;;;5099158;28;19920;-70
2021/12/15 02:04:26;;;;;;;;;;;7.60;96.90;;;;;;5088333;28;19909;-70
2021/12/15 02:06:51;;;;;;;;;;;7.60;96.90;;;;;;5079930;28;20008;-70
2021/12/15 02:09:30;;;;;;;;;;;7.60;96.90;;;;;;5088155;28;19912;-69
2021/12/15 02:11:56;;;;;;;;;;;7.60;96.90;;;;;;5080077;28;19912;-70
2021/12/15 02:14:21;;;;;;;;;;;7.60;96.90;;;;;;5088480;28;19939;-70
2021/12/15 02:16:47;;;;;;;;;;;7.60;96.90;;;;;;5090393;28;20002;-70
2021/12/15 02:19:13;;;;;;;;;;;7.60;96.90;;;;;;5089358;28;19912;-70
2021/12/15 02:21:38;;;;;;;;;;;7.60;96.90;;;;;;5101535;28;20293;-70
2021/12/15 02:24:04;;;;;;;;;;;7.60;96.90;;;;;;5088746;28;20015;-70
2021/12/15 02:26:36;;;;;;;;;;;7.60;96.90;;;;;;5087101;28;19952;-70
2021/12/15 02:29:03;;;;;;;;;;;7.60;96.90;;;;;;5090869;28;19908;-70
2021/12/15 02:39:31;;;;;;;;;;;7.60;97.00;;;;;;5089334;28;19919;-70
2021/12/15 02:41:57;;;;;;;;;;;7.60;96.90;;;;;;5095304;28;19951;-70
2021/12/15 02:44:23;;;;;;;;;;;7.60;96.90;;;;;;5087994;28;20345;-70
2021/12/15 02:46:49;;;;;;;;;;;7.60;96.90;;;;;;5099703;28;20006;-70
2021/12/15 02:49:16;;;;;;;;;;;7.60;96.90;;;;;;5094917;28;19980;-70
2021/12/15 02:51:43;;;;;;;;;;;7.60;96.90;;;;;;5097085;28;19916;-70
2021/12/15 02:54:11;;;;;;;;;;;7.60;96.90;;;;;;5095551;28;19912;-70
2021/12/15 02:56:37;;;;;;;;;;;7.60;97.00;;;;;;5099872;28;19981;-70
2021/12/15 02:59:06;;;;;;;;;;;7.60;96.90;;;;;;5105415;27;19913;-70
2021/12/15 03:02:16;;;;;;;;;;;7.60;96.90;;;;;;5097241;28;19943;-70
2021/12/15 03:07:02;;;;;;;;;;;7.60;96.90;;;;;;5093777;28;19974;-69
2021/12/15 03:17:40;;;;;;;;;;;7.60;96.90;;;;;;5090936;28;19923;-70
2021/12/15 03:20:07;;;;;;;;;;;7.60;97.00;;;;;;5093493;28;19912;-70
2021/12/15 03:22:33;;;;;;;;;;;7.60;97.00;;;;;;5091234;28;19912;-70
2021/12/15 03:24:58;;;;;;;;;;;7.60;97.00;;;;;;5094035;28;19908;-70
2021/12/15 03:33:15;;;;;;;;;;;7.60;97.00;;;;;;5089721;28;19955;-70
2021/12/15 03:36:00;;;;;;;;;;;7.50;97.00;;;;;;5092242;28;19919;-70
2021/12/15 03:38:26;;;;;;;;;;;7.60;97.00;;;;;;5093335;28;19977;-70
2021/12/15 03:40:52;;;;;;;;;;;7.60;97.10;;;;;;5090489;28;19952;-70
2021/12/15 03:43:18;;;;;;;;;;;7.60;97.10;;;;;;5092638;28;19955;-70
2021/12/15 03:45:50;;;;;;;;;;;7.50;97.10;;;;;;5089163;28;20019;-70
2021/12/15 03:48:19;;;;;;;;;;;7.50;97.10;;;;;;5090631;28;21554;-70
2021/12/15 03:50:45;;;;;;;;;;;7.60;97.10;;;;;;5091163;28;19927;-70
2021/12/15 03:53:11;;;;;;;;;;;7.50;97.10;;;;;;5093805;28;19915;-70
2021/12/15 03:55:37;;;;;;;;;;;7.50;97.30;;;;;;5094732;28;19920;-70
2021/12/15 03:58:07;;;;;;;;;;;7.50;97.10;;;;;;5089711;28;19908;-70
2021/12/15 04:00:33;;;;;;;;;;;7.50;97.00;;;;;;5096415;28;19974;-70
2021/12/15 04:02:58;;;;;;;;;;;7.50;97.00;;;;;;5093160;28;19916;-69
2021/12/15 04:05:24;;;;;;;;;;;7.60;97.00;;;;;;5091471;28;19965;-70
2021/12/15 04:07:50;;;;;;;;;;;7.50;97.00;;;;;;5088255;28;19916;-70
2021/12/15 04:10:17;;;;;;;;;;;7.60;97.00;;;;;;5108624;28;19951;-70
2021/12/15 04:12:43;;;;;;;;;;;7.50;97.00;;;;;;5094363;28;19958;-69
2021/12/15 04:17:44;;;;;;;;;;;7.60;97.00;;;;;;5092036;28;20010;-70
2021/12/15 04:20:12;;;;;;;;;;;7.60;97.00;;;;;;5101178;28;19908;-70
2021/12/15 04:22:38;;;;;;;;;;;7.60;97.00;;;;;;5126616;27;19943;-70
2021/12/15 04:25:11;;;;;;;;;;;7.60;97.00;;;;;;5100754;28;20585;-70
2021/12/15 04:27:38;;;;;;;;;;;7.60;97.00;;;;;;5091740;28;20368;-70
2021/12/15 04:30:05;;;;;;;;;;;7.60;97.00;;;;;;5102649;28;20366;-70
2021/12/15 04:32:34;;;;;;;;;;;7.60;97.00;;;;;;5092689;28;19920;-70
2021/12/15 04:35:00;;;;;;;;;;;7.60;97.00;;;;;;5098833;28;19943;-70
2021/12/15 04:37:26;;;;;;;;;;;7.60;97.00;;;;;;5091095;28;19951;-69
2021/12/15 04:39:51;;;;;;;;;;;7.60;97.00;;;;;;5092679;28;20378;-70
2021/12/15 04:42:19;;;;;;;;;;;7.60;96.90;;;;;;5085713;28;20328;-69
2021/12/15 04:44:45;;;;;;;;;;;7.60;97.00;;;;;;5090098;28;20015;-69
2021/12/15 04:47:12;;;;;;;;;;;7.60;96.90;;;;;;5087211;28;20010;-70
2021/12/15 04:49:47;;;;;;;;;;;7.60;96.90;;;;;;5093540;28;19922;-69
2021/12/15 04:52:13;;;;;;;;;;;7.60;96.90;;;;;;5091518;28;19912;-70
2021/12/15 04:54:40;;;;;;;;;;;7.60;97.00;;;;;;5090229;28;19915;-70
2021/12/15 04:57:05;;;;;;;;;;;7.60;97.10;;;;;;5091767;28;19924;-70
2021/12/15 04:59:31;;;;;;;;;;;7.60;97.00;;;;;;5091889;28;19918;-69
2021/12/15 05:01:57;;;;;;;;;;;7.60;97.10;;;;;;5090271;28;20046;-69
2021/12/15 05:04:22;;;;;;;;;;;7.60;97.10;;;;;;5105177;28;19942;-69
2021/12/15 05:06:48;;;;;;;;;;;7.60;97.10;;;;;;5096610;28;19920;-69
2021/12/15 05:09:14;;;;;;;;;;;7.60;97.10;;;;;;5088838;28;19908;-70
2021/12/15 05:11:40;;;;;;;;;;;7.60;97.10;;;;;;5089906;28;20389;-70
2021/12/15 05:14:05;;;;;;;;;;;7.60;97.10;;;;;;5092705;28;19922;-70
2021/12/15 05:16:31;;;;;;;;;;;7.60;97.00;;;;;;5086906;28;20014;-70
2021/12/15 05:18:56;;;;;;;;;;;7.60;97.00;;;;;;5091870;28;20246;-70
2021/12/15 05:21:23;;;;;;;;;;;7.60;97.00;;;;;;5088972;28;20343;-69
2021/12/15 05:23:54;;;;;;;;;;;7.70;97.10;;;;;;5090027;28;20633;-69
2021/12/15 05:26:21;;;;;;;;;;;7.60;97.00;;;;;;5087181;28;19920;-69
2021/12/15 05:28:46;;;;;;;;;;;7.60;97.10;;;;;;5091464;28;20402;-70
2021/12/15 05:31:12;;;;;;;;;;;7.60;97.00;;;;;;5088619;28;19911;-70
2021/12/15 05:33:37;;;;;;;;;;;7.60;97.00;;;;;;5089964;28;19918;-69
2021/12/15 05:36:04;;;;;;;;;;;7.60;97.00;;;;;;5090119;28;19963;-70
2021/12/15 05:38:29;;;;;;;;;;;7.60;97.00;;;;;;5090548;28;19997;-70
2021/12/15 05:40:56;;;;;;;;;;;7.60;97.10;;;;;;5088365;28;19959;-70
2021/12/15 05:43:23;;;;;;;;;;;7.60;97.10;;;;;;5090243;28;19912;-70
2021/12/15 05:45:50;;;;;;;;;;;7.70;97.10;;;;;;5086656;28;19920;-69
2021/12/15 05:48:16;;;;;;;;;;;7.70;97.10;;;;;;5087557;28;19995;-69
2021/12/15 05:50:42;;;;;;;;;;;7.70;97.10;;;;;;5088150;28;20384;-70
2021/12/15 05:53:08;;;;;;;;;;;7.60;97.00;;;;;;5092900;28;19908;-69
2021/12/15 05:55:34;;;;;;;;;;;7.70;97.00;;;;;;5091374;28;19964;-70
2021/12/15 05:58:00;;;;;;;;;;;7.70;97.10;;;;;;5085705;28;20057;-69
2021/12/15 06:00:31;;;;;;;;;;;7.60;97.00;;;;;;5094531;28;20443;-69
2021/12/15 06:02:57;;;;;;;;;;;7.70;97.00;;;;;;5087474;28;19966;-69
2021/12/15 06:05:23;;;;;;;;;;;7.70;97.10;;;;;;5098978;28;19959;-70
2021/12/15 06:07:49;;;;;;;;;;;7.60;97.10;;;;;;5091768;28;19912;-69
2021/12/15 06:10:21;;;;;;;;;;;7.70;97.10;;;;;;5095265;28;19912;-69
2021/12/15 06:12:48;;;;;;;;;;;7.70;97.10;;;;;;5091954;28;20383;-70
2021/12/15 06:15:20;;;;;;;;;;;7.70;97.10;;;;;;5093515;28;20388;-69
2021/12/15 06:17:46;;;;;;;;;;;7.70;97.10;;;;;;5091071;28;20007;-70
2021/12/15 06:20:11;;;;;;;;;;;7.70;97.10;;;;;;5095578;28;19987;-70
2021/12/15 06:22:39;;;;;;;;;;;7.70;97.00;;;;;;5094989;28;19919;-70
2021/12/15 06:25:05;;;;;;;;;;;7.70;97.10;;;;;;5093770;28;19923;-70
2021/12/15 06:27:35;;;;;;;;;;;7.70;97.00;;;;;;5092671;28;19916;-70
2021/12/15 06:30:01;;;;;;;;;;;7.70;97.10;;;;;;5093766;28;19916;-70
2021/12/15 06:32:27;;;;;;;;;;;7.70;97.00;;;;;;5094259;28;19919;-70
2021/12/15 06:34:52;;;;;;;;;;;7.70;97.00;;;;;;5102272;28;19916;-70
2021/12/15 06:37:18;;;;;;;;;;;7.60;97.00;;;;;;5095352;28;20264;-70
2021/12/15 06:39:43;;;;;;;;;;;7.70;97.00;;;;;;5097173;28;20003;-69
2021/12/15 06:42:09;;;;;;;;;;;7.70;97.10;;;;;;5097455;28;19916;-69
2021/12/15 06:44:34;;;;;;;;;;;7.70;97.00;;;;;;5097090;28;20376;-70
2021/12/15 06:47:22;;;;;;;;;;;;;;;;;;;;;
2021/12/15 07:00:33;;;;;;;;;;;7.70;97.00;;;;;;5095080;28;19912;-70
2021/12/15 07:02:59;;;;;;;;;;;7.70;97.10;;;;;;5097167;28;19914;-69
2021/12/15 07:05:25;;;;;;;;;;;7.70;97.00;;;;;;5100380;28;19916;-70
2021/12/15 07:07:51;;;;;;;;;;;7.70;97.00;;;;;;5095738;28;20265;-70
2021/12/15 07:10:21;;;;;;;;;;;7.70;97.00;;;;;;5100674;28;19913;-70
2021/12/15 07:12:46;;;;;;;;;;;7.70;97.00;;;;;;5092028;28;19912;-70
2021/12/15 07:15:12;;;;;;;;;;;7.70;97.00;;;;;;5086478;28;19923;-70
2021/12/15 07:17:39;;;;;;;;;;;7.70;97.00;;;;;;5091113;28;19924;-69
2021/12/15 07:20:27;;;;;;;;;;;7.70;97.00;;;;;;5088895;28;20003;-70
2021/12/15 07:22:51;;;;;;;;;;;7.70;97.00;;;;;;5098779;28;19912;-69
2021/12/15 07:25:17;;;;;;;;;;;7.70;97.00;;;;;;5092464;28;19923;-70
2021/12/15 07:27:43;;;;;;;;;;;7.70;97.00;;;;;;5093592;28;19912;-70
2021/12/15 07:30:09;;;;;;;;;;;7.70;97.00;;;;;;5094035;28;19916;-70
2021/12/15 07:32:35;;;;;;;;;;;7.70;97.10;;;;;;5092290;28;20056;-69
2021/12/15 07:35:00;;;;;;;;;;;7.70;97.10;;;;;;5100789;28;19947;-69
2021/12/15 07:37:26;;;;;;;;;;;7.70;97.00;;;;;;5092452;28;20034;-70
2021/12/15 07:39:58;;;;;;;;;;;7.70;97.10;;;;;;5092931;28;19951;-70
2021/12/15 07:42:35;;;;;;;;;;;7.70;97.10;;;;;;5092611;28;19916;-70
2021/12/15 07:45:01;;;;;;;;;;;7.70;97.00;;;;;;5091249;28;19948;-70
2021/12/15 07:47:26;;;;;;;;;;;7.70;97.00;;;;;;5091204;28;19992;-70
2021/12/15 07:49:52;;;;;;;;;;;7.70;97.00;;;;;;5096171;28;20037;-70
2021/12/15 07:52:17;;;;;;;;;;;7.70;97.00;;;;;;5090487;28;19963;-71
2021/12/15 07:54:43;;;;;;;;;;;7.70;97.10;;;;;;5100917;28;20297;-72
2021/12/15 07:57:10;;;;;;;;;;;7.70;97.10;;;;;;5090688;28;19916;-72
2021/12/15 07:59:36;;;;;;;;;;;7.70;97.10;;;;;;5095344;28;19931;-72
2021/12/15 08:02:02;;;;;;;;;;;7.70;97.10;;;;;;5095803;28;19954;-72
2021/12/15 08:04:28;;;;;;;;;;;7.70;97.10;;;;;;5098903;28;19951;-72
2021/12/15 08:06:53;;;;;;;;;;;7.70;97.10;;;;;;5091058;28;20418;-72
2021/12/15 08:09:20;;;;;;;;;;;7.70;97.10;;;;;;5095794;28;19943;-72
2021/12/15 08:11:46;;;;;;;;;;;7.70;97.10;;;;;;5092476;28;20033;-72
2021/12/15 08:14:12;;;;;;;;;;;7.70;97.10;;;;;;5099657;28;19999;-72
2021/12/15 08:16:38;;;;;;;;;;;7.70;97.20;;;;;;5088205;28;19913;-72
2021/12/15 08:19:03;;;;;;;;;;;7.70;97.10;;;;;;5092419;28;20361;-72
2021/12/15 08:21:29;;;;;;;;;;;7.70;97.10;;;;;;5091993;28;20010;-72
2021/12/15 08:23:55;;;;;;;;;;;7.70;97.20;;;;;;5094049;28;19951;-72
2021/12/15 08:26:20;;;;;;;;;;;7.70;97.20;;;;;;5093378;28;20277;-72
2021/12/15 08:28:46;;;;;;;;;;;7.70;97.20;;;;;;5081689;28;19919;-70
2021/12/15 08:31:11;;;;;;;;;;;7.80;97.30;;;;;;5093696;28;19933;-70
2021/12/15 08:33:39;;;;;;;;;;;7.80;97.20;;;;;;5089227;28;19936;-70
2021/12/15 08:36:06;;;;;;;;;;;7.80;97.20;;;;;;5092259;28;19920;-70
2021/12/15 08:38:33;;;;;;;;;;;7.80;97.20;;;;;;5088934;28;19908;-70
2021/12/15 08:40:59;;;;;;;;;;;7.80;97.20;;;;;;5091703;28;19928;-70
2021/12/15 08:43:27;;;;;;;;;;;7.80;97.20;;;;;;5092358;28;19911;-70
2021/12/15 08:45:58;;;;;;;;;;;7.80;97.10;;;;;;5089319;28;19916;-70
2021/12/15 08:48:24;;;;;;;;;;;7.80;97.20;;;;;;5093339;28;19915;-70
2021/12/15 08:50:49;;;;;;;;;;;7.80;97.20;;;;;;5090857;28;19920;-70
2021/12/15 08:53:15;;;;;;;;;;;7.80;97.30;;;;;;5103069;28;19916;-70
2021/12/15 08:55:43;;;;;;;;;;;7.80;97.40;;;;;;5090638;28;19924;-70
2021/12/15 08:58:11;;;;;;;;;;;7.80;97.40;;;;;;5090359;28;19915;-70
2021/12/15 09:00:37;;;;;;;;;;;7.80;97.30;;;;;;5089250;28;19918;-70
2021/12/15 09:03:03;;;;;;;;;;;7.80;97.40;;;;;;5090904;28;19920;-70
2021/12/15 09:05:28;;;;;;;;;;;7.80;97.30;;;;;;5087788;28;19924;-70
2021/12/15 09:07:55;;;;;;;;;;;7.80;97.40;;;;;;5092605;28;19908;-70
2021/12/15 09:10:22;;;;;;;;;;;7.80;97.30;;;;;;5096143;28;19920;-70
2021/12/15 09:12:48;;;;;;;;;;;7.90;97.40;;;;;;5089219;28;19911;-70
2021/12/15 09:15:14;;;;;;;;;;;7.90;97.40;;;;;;5090130;28;20361;-70
2021/12/15 09:17:39;;;;;;;;;;;7.80;97.50;;;;;;5089026;28;19912;-70
2021/12/15 09:20:06;;;;;;;;;;;7.90;97.50;;;;;;5090525;28;20250;-70
2021/12/15 09:22:32;;;;;;;;;;;7.90;97.50;;;;;;5089391;28;19990;-70
2021/12/15 09:24:58;;;;;;;;;;;7.90;97.40;;;;;;5090938;28;19991;-70
2021/12/15 09:27:23;;;;;;;;;;;7.90;97.40;;;;;;5089713;28;19947;-70
2021/12/15 09:29:49;;;;;;;;;;;7.90;97.40;;;;;;5095536;28;20404;-70
2021/12/15 09:32:14;;;;;;;;;;;7.90;97.50;;;;;;5089521;28;19918;-70
2021/12/15 09:34:40;;;;;;;;;;;7.90;97.50;;;;;;5091202;28;19923;-70
2021/12/15 09:37:05;;;;;;;;;;;7.90;97.60;;;;;;5090541;28;19958;-70
2021/12/15 09:39:31;;;;;;;;;;;7.90;97.50;;;;;;5092702;28;19970;-70
2021/12/15 09:41:59;;;;;;;;;;;7.90;97.50;;;;;;5089203;28;19999;-70
2021/12/15 09:44:26;;;;;;;;;;;7.90;97.50;;;;;;5100079;28;19999;-70
2021/12/15 10:03:02;;;;;;;;;;;8.00;97.50;;;;;;5091053;28;19926;-70
2021/12/15 10:11:14;;;;;;;;;;;8.00;97.60;;;;;;5090379;28;19923;-70
2021/12/15 10:19:20;;;;;;;;;;;8.00;97.50;;;;;;5089659;28;19919;-70
2021/12/15 10:21:56;;;;;;;;;;;8.00;97.40;;;;;;5091671;28;19978;-70
2021/12/15 10:24:35;;;;;;;;;;;8.00;97.50;;;;;;5097692;28;19919;-70
2021/12/15 10:27:06;;;;;;;;;;;8.00;97.50;;;;;;5088395;28;19909;-70
2021/12/15 10:29:31;;;;;;;;;;;8.00;97.60;;;;;;5086278;28;19920;-70
2021/12/15 10:32:01;;;;;;;;;;;8.10;97.50;;;;;;5085527;28;19919;-70
2021/12/15 10:34:27;;;;;;;;;;;8.10;97.50;;;;;;5088337;28;19955;-70
2021/12/15 10:36:52;;;;;;;;;;;8.10;97.50;;;;;;5087259;28;19943;-70
2021/12/15 10:39:19;;;;;;;;;;;8.10;97.50;;;;;;5087250;28;20499;-70
2021/12/15 10:41:45;;;;;;;;;;;8.10;97.40;;;;;;5091930;28;19919;-70
2021/12/15 10:44:15;;;;;;;;;;;8.10;97.50;;;;;;5084040;28;19921;-70
2021/12/15 10:46:49;;;;;;;;;;;8.10;97.40;;;;;;5091437;28;21322;-70
2021/12/15 10:49:31;;;;;;;;;;;8.10;97.50;;;;;;5091583;28;19977;-70
2021/12/15 10:51:59;;;;;;;;;;;8.10;97.50;;;;;;5089471;28;19927;-70
2021/12/15 10:54:24;;;;;;;;;;;8.20;97.50;;;;;;5105730;28;19968;-70
2021/12/15 10:56:52;;;;;;;;;;;8.20;97.50;;;;;;5088492;28;19920;-71
2021/12/15 10:59:17;;;;;;;;;;;8.20;97.50;;;;;;5087162;28;20349;-70
2021/12/15 11:01:46;;;;;;;;;;;8.10;97.40;;;;;;5089241;28;19928;-70
2021/12/15 11:04:24;;;;;;;;;;;8.20;97.50;;;;;;5086337;28;20273;-70
2021/12/15 11:07:01;;;;;;;;;;;8.20;97.50;;;;;;5101903;28;19920;-70
2021/12/15 11:09:30;;;;;;;;;;;8.20;97.50;;;;;;5107473;28;20003;-70
2021/12/15 11:11:56;;;;;;;;;;;8.20;97.50;;;;;;5091854;28;19943;-70
2021/12/15 11:14:23;;;;;;;;;;;8.20;97.40;;;;;;5093053;28;20004;-70
2021/12/15 11:17:01;;;;;;;;;;;8.20;97.40;;;;;;5089618;28;19912;-70
2021/12/15 11:19:45;;;;;;;;;;;8.20;97.30;;;;;;5092944;28;19916;-70
2021/12/15 11:22:29;;;;;;;;;;;8.20;97.40;;;;;;5091374;28;19908;-70
2021/12/15 11:24:55;;;;;;;;;;;8.20;97.40;;;;;;5092893;28;20315;-70
2021/12/15 11:27:20;;;;;;;;;;;8.20;97.40;;;;;;5099912;28;19912;-70
2021/12/15 11:29:46;;;;;;;;;;;8.20;97.40;;;;;;5094857;28;20046;-70
2021/12/15 11:32:30;;;;;;;;;;;8.20;97.40;;;;;;5092262;28;19912;-70
2021/12/15 11:35:15;;;;;;;;;;;8.20;97.50;;;;;;5084943;28;19986;-70
2021/12/15 11:37:44;;;;;;;;;;;8.20;97.40;;;;;;5088529;28;19947;-70
2021/12/15 11:40:10;;;;;;;;;;;8.30;97.50;;;;;;5090983;28;19991;-70
2021/12/15 11:42:39;;;;;;;;;;;8.20;97.60;;;;;;5091764;28;19945;-70
2021/12/15 11:45:10;;;;;;;;;;;8.20;97.50;;;;;;5095701;28;20813;-70
2021/12/15 11:47:37;;;;;;;;;;;8.30;97.50;;;;;;5099187;28;19912;-70
2021/12/15 11:50:13;;;;;;;;;;;8.30;97.50;;;;;;5093896;28;19945;-70
2021/12/15 11:52:43;;;;;;;;;;;8.30;97.50;;;;;;5099574;28;20431;-70
2021/12/15 11:55:28;;;;;;;;;;;8.30;97.40;;;;;;5095993;28;19912;-70
2021/12/15 11:57:54;;;;;;;;;;;8.30;97.40;;;;;;5098942;28;19919;-70
2021/12/15 12:00:21;;;;;;;;;;;8.30;97.50;;;;;;5092182;28;19920;-70
2021/12/15 12:02:52;;;;;;;;;;;8.30;97.50;;;;;;5091479;28;20341;-70
2021/12/15 12:05:18;;;;;;;;;;;8.30;97.60;;;;;;5092304;28;19916;-71
2021/12/15 12:07:46;;;;;;;;;;;8.30;97.60;;;;;;5100824;28;19956;-70
2021/12/15 12:10:13;;;;;;;;;;;8.30;97.50;;;;;;5096335;28;19920;-70
2021/12/15 12:12:48;;;;;;;;;;;8.30;97.50;;;;;;5089314;28;19972;-70
2021/12/15 12:15:14;;;;;;;;;;;8.30;97.50;;;;;;5090736;28;20353;-70
2021/12/15 12:17:40;;;;;;;;;;;8.30;97.50;;;;;;5090074;28;19923;-70
2021/12/15 12:20:08;;;;;;;;;;;8.30;97.50;;;;;;5091504;28;19912;-70
2021/12/15 12:22:34;;;;;;;;;;;8.30;97.50;;;;;;5095576;28;20345;-71
2021/12/15 12:25:02;;;;;;;;;;;8.30;97.60;;;;;;5093121;28;19912;-70
2021/12/15 12:27:29;;;;;;;;;;;8.30;97.50;;;;;;5097163;28;20011;-70
2021/12/15 12:29:56;;;;;;;;;;;8.30;97.50;;;;;;5086080;28;19943;-70
2021/12/15 12:32:22;;;;;;;;;;;8.40;97.50;;;;;;5088194;28;20396;-69
2021/12/15 12:34:48;;;;;;;;;;;8.30;97.50;;;;;;5090982;28;19912;-70
2021/12/15 12:37:15;;;;;;;;;;;8.40;97.50;;;;;;5095435;28;19911;-69
2021/12/15 12:39:42;;;;;;;;;;;8.40;97.50;;;;;;5089774;28;19935;-70
2021/12/15 12:42:08;;;;;;;;;;;8.40;97.50;;;;;;5132713;27;20014;-69
2021/12/15 12:44:39;;;;;;;;;;;8.40;97.50;;;;;;5097932;28;20011;-70
2021/12/15 12:47:19;;;;;;;;;;;8.40;97.50;;;;;;5091080;28;19964;-69
2021/12/15 12:59:24;;;;;;;;;;;8.40;97.60;;;;;;5090562;28;19965;-69
2021/12/15 13:01:00;;;;;;;;;;;8.40;97.60;;;;;;5089844;28;19915;-69
2021/12/15 13:03:35;;;;;;;;;;;8.40;97.60;;;;;;5092737;28;19907;-69
2021/12/15 13:06:01;;;;;;;;;;;8.40;97.50;;;;;;5087270;28;19912;-69
2021/12/15 13:08:29;;;;;;;;;;;8.40;97.50;;;;;;5097001;28;20279;-69
2021/12/15 13:11:01;;;;;;;;;;;8.40;97.60;;;;;;5089603;28;20321;-69
2021/12/15 13:13:36;;;;;;;;;;;8.40;97.50;;;;;;5094253;28;19912;-69
2021/12/15 13:16:04;;;;;;;;;;;8.40;97.50;;;;;;5088834;28;19911;-69
2021/12/15 13:18:56;;;;;;;;;;;8.40;97.50;;;;;;5093228;28;19919;-69
2021/12/15 13:21:41;;;;;;;;;;;8.40;97.60;;;;;;5085830;28;19939;-69
2021/12/15 13:28:39;;;;;;;;;;;8.40;97.60;;;;;;5096009;28;20004;-69
2021/12/15 13:30:01;;;;;;;;;;;8.40;97.60;;;;;;5091192;28;19923;-69
2021/12/15 13:32:29;;;;;;;;;;;8.40;97.60;;;;;;5096075;28;19922;-69
2021/12/15 13:34:55;;;;;;;;;;;8.40;97.50;;;;;;5093338;28;19916;-69
2021/12/15 13:37:39;;;;;;;;;;;8.40;97.50;;;;;;5097353;28;19916;-69
2021/12/15 13:40:09;;;;;;;;;;;8.40;97.50;;;;;;5093417;28;19973;-69
2021/12/15 13:42:52;;;;;;;;;;;8.40;97.50;;;;;;5096345;28;19916;-70
2021/12/15 13:45:24;;;;;;;;;;;8.40;97.50;;;;;;5092034;28;19930;-69
2021/12/15 13:47:50;;;;;;;;;;;8.40;97.50;;;;;;5096633;28;19973;-69
2021/12/15 13:50:17;;;;;;;;;;;8.50;97.60;;;;;;5091717;28;19920;-69
2021/12/15 13:52:44;;;;;;;;;;;8.40;97.50;;;;;;5097029;28;20303;-70
2021/12/15 13:55:09;;;;;;;;;;;8.40;97.50;;;;;;5085605;28;19920;-69
2021/12/15 13:57:38;;;;;;;;;;;8.40;97.50;;;;;;5087580;28;19920;-69
2021/12/15 14:00:12;;;;;;;;;;;8.50;97.50;;;;;;5092203;28;20003;-69
2021/12/15 14:02:53;;;;;;;;;;;8.40;97.60;;;;;;5093807;28;20381;-69
2021/12/15 14:05:33;;;;;;;;;;;8.40;97.50;;;;;;5087605;28;19956;-69
2021/12/15 14:08:06;;;;;;;;;;;8.40;97.50;;;;;;5080450;28;19912;-69
2021/12/15 14:10:34;;;;;;;;;;;8.50;97.60;;;;;;5091634;28;19908;-69
2021/12/15 14:13:02;;;;;;;;;;;8.40;97.50;;;;;;5088454;28;19912;-70
2021/12/15 14:15:28;;;;;;;;;;;8.50;97.50;;;;;;5090578;28;19951;-69
2021/12/15 14:18:04;;;;;;;;;;;8.50;97.50;;;;;;5089792;28;19953;-69
2021/12/15 14:20:31;;;;;;;;;;;8.50;97.60;;;;;;5087529;28;19961;-69
2021/12/15 14:22:58;;;;;;;;;;;8.50;97.50;;;;;;5089008;28;20057;-69
2021/12/15 14:25:23;;;;;;;;;;;8.50;97.50;;;;;;5091724;28;20383;-69
2021/12/15 14:27:49;;;;;;;;;;;8.40;97.50;;;;;;5087731;28;19911;-70
2021/12/15 14:30:14;;;;;;;;;;;8.50;97.50;;;;;;5090125;28;19916;-69
2021/12/15 14:32:40;;;;;;;;;;;8.50;97.50;;;;;;5090771;28;19913;-69
2021/12/15 14:35:15;;;;;;;;;;;8.50;97.50;;;;;;5087092;28;19912;-69
2021/12/15 14:37:42;;;;;;;;;;;8.50;97.50;;;;;;5086369;28;20003;-69
2021/12/15 14:40:07;;;;;;;;;;;8.40;97.40;;;;;;5090259;28;19927;-69
2021/12/15 14:42:34;;;;;;;;;;;8.50;97.50;;;;;;5089736;28;19908;-69
2021/12/15 14:45:01;;;;;;;;;;;8.40;97.40;;;;;;5094968;28;19927;-69
2021/12/15 14:47:29;;;;;;;;;;;8.50;97.40;;;;;;5093297;28;19931;-69
2021/12/15 14:49:56;;;;;;;;;;;8.40;97.50;;;;;;5093116;28;19909;-69
2021/12/15 14:52:24;;;;;;;;;;;8.40;97.50;;;;;;5092296;28;19912;-70
2021/12/15 14:54:52;;;;;;;;;;;8.40;97.50;;;;;;5094669;28;19919;-69
2021/12/15 14:57:19;;;;;;;;;;;8.40;97.50;;;;;;5090687;28;19924;-69
2021/12/15 14:59:47;;;;;;;;;;;8.40;97.50;;;;;;5093835;28;19915;-69
2021/12/15 15:02:20;;;;;;;;;;;8.40;97.50;;;;;;5104202;28;20478;-69
2021/12/15 15:04:48;;;;;;;;;;;8.40;97.50;;;;;;5094674;28;19912;-69
2021/12/15 15:07:15;;;;;;;;;;;8.40;97.50;;;;;;5100554;28;19912;-69
2021/12/15 15:09:43;;;;;;;;;;;8.40;97.50;;;;;;5105881;27;19916;-70
2021/12/15 15:12:19;;;;;;;;;;;8.40;97.40;;;;;;5098217;28;19916;-69
2021/12/15 15:14:57;;;;;;;;;;;8.40;97.50;;;;;;5093260;28;19934;-69
2021/12/15 15:17:33;;;;;;;;;;;8.40;97.50;;;;;;5101186;28;19916;-70
2021/12/15 15:20:01;;;;;;;;;;;8.40;97.50;;;;;;5089024;28;19916;-69
2021/12/15 15:22:32;;;;;;;;;;;8.40;97.50;;;;;;5098980;28;20324;-69
2021/12/15 15:24:59;;;;;;;;;;;8.40;97.50;;;;;;5092206;28;19927;-69
2021/12/15 15:27:25;;;;;;;;;;;8.40;97.50;;;;;;5098308;28;19916;-70
2021/12/15 15:29:58;;;;;;;;;;;8.40;97.50;;;;;;5091653;28;19912;-69
2021/12/15 15:32:25;;;;;;;;;;;8.40;97.40;;;;;;5102022;28;19989;-69
2021/12/15 15:34:53;;;;;;;;;;;8.40;97.50;;;;;;5093126;28;20391;-69
2021/12/15 15:37:20;;;;;;;;;;;8.40;97.50;;;;;;5098466;28;20515;-70
2021/12/15 15:39:46;;;;;;;;;;;8.40;97.50;;;;;;5092605;28;20372;-69
2021/12/15 15:42:19;;;;;;;;;;;8.40;97.40;;;;;;5101794;28;19944;-69
2021/12/15 15:44:44;;;;;;;;;;;8.30;97.40;;;;;;5092209;28;19923;-69
2021/12/15 15:47:14;;;;;;;;;;;8.40;97.50;;;;;;5103000;28;19965;-69
2021/12/15 15:49:47;;;;;;;;;;;8.40;97.50;;;;;;5093391;28;19923;-69
2021/12/15 15:52:12;;;;;;;;;;;8.30;97.40;;;;;;5087136;28;19923;-69
2021/12/15 15:54:38;;;;;;;;;;;8.30;97.40;;;;;;5093879;28;19915;-69
2021/12/15 15:57:06;;;;;;;;;;;8.30;97.50;;;;;;5096346;28;19920;-69
2021/12/15 15:59:32;;;;;;;;;;;8.30;97.50;;;;;;5092413;28;19967;-69
2021/12/15 16:01:59;;;;;;;;;;;8.30;97.50;;;;;;5092360;28;19916;-69
2021/12/15 16:04:27;;;;;;;;;;;8.30;97.50;;;;;;5095202;28;19950;-69